createdAt,value
2022-12-23T00:00:54.892Z,13.57
2022-12-23T00:04:16.234Z,12.43
2022-12-23T00:07:37.971Z,13.07
2022-12-23T00:11:01.235Z,12.97
2022-12-23T00:14:36.444Z,12.40
2022-12-23T00:17:57.873Z,12.53
2022-12-23T00:21:19.348Z,12.57
2022-12-23T00:24:40.613Z,12.67
2022-12-23T00:28:03.733Z,12.43
2022-12-23T00:31:26.442Z,12.43
2022-12-23T00:34:47.740Z,12.43
2022-12-23T00:38:09.165Z,12.73
2022-12-23T00:41:48.786Z,13.13
2022-12-23T00:45:16.472Z,12.10
2022-12-23T00:48:55.447Z,11.87
2022-12-23T00:52:16.922Z,12.33
2022-12-23T00:55:38.773Z,11.33
2022-12-23T00:59:00.929Z,12.07
2022-12-23T01:02:41.281Z,12.23
2022-12-23T01:06:03.860Z,12.73
2022-12-23T01:09:26.064Z,12.43
2022-12-23T01:12:47.428Z,13.37
2022-12-23T01:16:16.838Z,12.50
2022-12-23T01:19:40.783Z,12.37
2022-12-23T01:23:02.435Z,12.80
2022-12-23T01:26:24.224Z,13.20
2022-12-23T01:29:46.995Z,12.50
2022-12-23T01:33:09.054Z,12.43
2022-12-23T01:36:32.450Z,12.57
2022-12-23T01:39:53.821Z,12.23
2022-12-23T01:43:17.373Z,13.27
2022-12-23T01:46:38.851Z,12.43
2022-12-23T01:50:06.017Z,12.00
2022-12-23T01:53:32.587Z,11.87
2022-12-23T01:56:54.178Z,12.27
2022-12-23T02:00:34.147Z,11.97
2022-12-23T02:03:58.764Z,12.23
2022-12-23T02:07:38.110Z,12.17
2022-12-23T02:11:28.281Z,10.93
2022-12-23T02:15:31.262Z,11.50
2022-12-23T02:19:12.563Z,11.07
2022-12-23T02:22:55.759Z,11.10
2022-12-23T02:26:49.018Z,11.27
2022-12-23T02:30:37.980Z,11.07
2022-12-23T02:34:08.047Z,11.13
2022-12-23T02:37:37.053Z,10.97
2022-12-23T02:41:08.369Z,11.23
2022-12-23T02:44:37.361Z,11.27
2022-12-23T02:48:05.911Z,10.73
2022-12-23T02:51:32.806Z,10.73
2022-12-23T02:55:00.223Z,9.67
2022-12-23T02:58:28.254Z,10.33
2022-12-23T03:01:52.014Z,10.47
2022-12-23T03:05:30.681Z,10.47
2022-12-23T03:08:55.614Z,9.90
2022-12-23T03:12:28.489Z,10.07
2022-12-23T03:15:56.944Z,9.87
2022-12-23T03:19:27.180Z,9.27
2022-12-23T03:23:00.171Z,10.13
2022-12-23T03:26:26.286Z,9.77
2022-12-23T03:29:55.281Z,9.57
2022-12-23T03:33:20.528Z,10.33
2022-12-23T03:36:47.942Z,9.90
2022-12-23T03:40:16.148Z,10.13
2022-12-23T03:43:48.323Z,9.57
2022-12-23T03:47:15.962Z,9.37
2022-12-23T03:50:41.517Z,9.70
2022-12-23T03:54:11.016Z,9.60
2022-12-23T03:57:39.771Z,8.67
2022-12-23T04:01:11.015Z,9.97
2022-12-23T04:04:46.444Z,9.67
2022-12-23T04:08:14.298Z,9.23
2022-12-23T04:11:37.530Z,9.53
2022-12-23T04:15:00.269Z,9.20
2022-12-23T04:18:21.846Z,9.60
2022-12-23T04:21:43.341Z,9.53
2022-12-23T04:25:05.700Z,9.47
2022-12-23T04:28:27.366Z,8.70
2022-12-23T04:31:49.945Z,8.97
2022-12-23T04:35:13.257Z,10.40
2022-12-23T04:38:34.990Z,9.77
2022-12-23T04:41:56.707Z,9.40
2022-12-23T04:45:18.502Z,10.00
2022-12-23T04:48:41.646Z,10.17
2022-12-23T04:52:03.425Z,9.97
2022-12-23T04:55:25.159Z,10.07
2022-12-23T04:58:48.023Z,10.57
2022-12-23T05:02:09.680Z,10.50
2022-12-23T05:05:32.837Z,9.50
2022-12-23T05:08:54.733Z,10.00
2022-12-23T05:12:16.136Z,9.53
2022-12-23T05:15:37.876Z,9.73
2022-12-23T05:18:59.536Z,9.93
2022-12-23T05:22:22.447Z,9.43
2022-12-23T05:25:43.802Z,9.30
2022-12-23T05:29:06.167Z,9.90
2022-12-23T05:32:29.908Z,9.87
2022-12-23T05:35:51.848Z,9.03
2022-12-23T05:39:14.956Z,8.73
2022-12-23T05:42:36.407Z,9.03
2022-12-23T05:45:58.328Z,9.07
2022-12-23T05:49:20.042Z,9.03
2022-12-23T05:52:41.824Z,9.37
2022-12-23T05:56:07.037Z,9.47
2022-12-23T05:59:31.294Z,9.40
2022-12-23T06:02:54.250Z,8.63
2022-12-23T06:06:16.176Z,9.37
2022-12-23T06:09:38.011Z,9.80
2022-12-23T06:13:00.689Z,10.27
2022-12-23T06:16:22.721Z,10.87
2022-12-23T06:19:44.369Z,10.57
2022-12-23T06:23:06.115Z,10.20
2022-12-23T06:26:27.981Z,9.83
2022-12-23T06:29:51.098Z,9.43
2022-12-23T06:33:12.189Z,9.37
2022-12-23T06:36:33.875Z,10.17
2022-12-23T06:39:55.292Z,9.47
2022-12-23T06:43:17.355Z,10.33
2022-12-23T06:46:40.368Z,9.63
2022-12-23T06:50:01.917Z,10.20
2022-12-23T06:53:23.772Z,9.40
2022-12-23T06:56:45.177Z,10.70
2022-12-23T07:00:08.277Z,10.57
2022-12-23T07:03:32.833Z,11.10
2022-12-23T07:06:54.617Z,10.17
2022-12-23T07:10:16.566Z,10.20
2022-12-23T07:13:38.247Z,10.20
2022-12-23T07:17:00.125Z,10.37
2022-12-23T07:20:23.119Z,10.03
2022-12-23T07:23:44.708Z,10.03
2022-12-23T07:27:06.588Z,14.27
2022-12-23T07:30:29.152Z,10.03
2022-12-23T07:33:50.595Z,11.00
2022-12-23T07:37:13.901Z,10.13
2022-12-23T07:40:36.055Z,11.50
2022-12-23T07:43:57.606Z,10.07
2022-12-23T07:47:19.323Z,10.53
2022-12-23T07:50:41.123Z,10.70
2022-12-23T07:54:03.845Z,11.03
2022-12-23T07:57:25.413Z,11.40
2022-12-23T08:00:46.978Z,10.77
2022-12-23T08:04:09.143Z,11.47
2022-12-23T08:07:30.682Z,11.30
2022-12-23T08:10:58.226Z,11.40
2022-12-23T08:14:20.093Z,11.07
2022-12-23T08:17:41.797Z,12.67
2022-12-23T08:21:14.762Z,11.73
2022-12-23T08:24:36.077Z,12.00
2022-12-23T08:27:59.235Z,13.30
2022-12-23T08:31:22.913Z,16.17
2022-12-23T08:34:44.373Z,14.77
2022-12-23T08:38:07.492Z,11.80
2022-12-23T08:41:31.203Z,11.43
2022-12-23T08:44:54.155Z,11.30
2022-12-23T08:48:16.363Z,11.40
2022-12-23T08:51:38.793Z,11.00
2022-12-23T08:55:00.186Z,9.93
2022-12-23T08:58:22.139Z,10.90
2022-12-23T09:01:45.478Z,10.57
2022-12-23T09:05:07.128Z,10.40
2022-12-23T09:08:28.631Z,10.77
2022-12-23T09:11:50.573Z,11.73
2022-12-23T09:15:12.453Z,11.43
2022-12-23T09:18:35.712Z,11.63
2022-12-23T09:21:57.074Z,12.93
2022-12-23T09:25:18.655Z,14.77
2022-12-23T09:28:41.181Z,15.17
2022-12-23T09:32:02.558Z,16.73
2022-12-23T09:35:25.682Z,18.20
2022-12-23T09:38:47.713Z,14.17
2022-12-23T09:42:28.030Z,12.33
2022-12-23T09:46:00.301Z,11.97
2022-12-23T09:49:24.381Z,12.37
2022-12-23T09:52:55.520Z,11.33
2022-12-23T09:56:24.504Z,10.03
2022-12-23T10:00:02.939Z,11.07
2022-12-23T10:03:30.097Z,9.33
2022-12-23T10:07:02.824Z,9.07
2022-12-23T10:10:33.883Z,9.40
2022-12-23T10:13:58.795Z,10.50
2022-12-23T10:17:28.112Z,9.97
2022-12-23T10:20:54.963Z,9.90
2022-12-23T10:24:22.809Z,9.40
2022-12-23T10:27:46.317Z,9.60
2022-12-23T10:35:09.053Z,10.90
2022-12-23T10:38:52.228Z,9.77
2022-12-23T10:42:25.568Z,9.33
2022-12-23T10:45:59.159Z,8.80
2022-12-23T10:49:31.654Z,8.70
2022-12-23T10:52:55.215Z,8.33
2022-12-23T10:56:18.226Z,9.67
2022-12-23T10:59:40.830Z,11.27
2022-12-23T11:03:16.651Z,9.43
2022-12-23T11:06:42.047Z,9.93
2022-12-23T11:10:06.361Z,9.83
2022-12-23T11:13:36.619Z,8.77
2022-12-23T11:16:58.524Z,9.17
2022-12-23T11:20:21.723Z,7.87
2022-12-23T11:23:43.189Z,8.50
2022-12-23T11:27:07.360Z,8.03
2022-12-23T11:30:31.155Z,6.97
2022-12-23T11:33:59.388Z,8.70
2022-12-23T11:37:35.714Z,8.23
2022-12-23T11:40:58.069Z,7.40
2022-12-23T11:44:23.497Z,7.43
2022-12-23T11:47:45.236Z,7.33
2022-12-23T11:51:07.133Z,7.43
2022-12-23T11:54:30.718Z,7.13
2022-12-23T11:57:53.595Z,7.30
2022-12-23T12:01:18.894Z,7.97
2022-12-23T12:04:41.854Z,7.37
2022-12-23T12:08:06.841Z,7.03
2022-12-23T12:11:33.999Z,7.40
2022-12-23T12:14:57.666Z,7.60
2022-12-23T12:18:22.052Z,7.70
2022-12-23T12:21:45.003Z,6.60
2022-12-23T12:25:18.717Z,7.17
2022-12-23T12:28:44.162Z,9.83
2022-12-23T12:32:10.910Z,7.40
2022-12-23T12:35:37.901Z,6.97
2022-12-23T12:39:00.912Z,6.67
2022-12-23T12:42:27.816Z,6.27
2022-12-23T12:45:54.881Z,6.70
2022-12-23T12:49:23.538Z,7.07
2022-12-23T12:52:45.423Z,6.90
2022-12-23T12:56:13.235Z,6.60
2022-12-23T12:59:37.758Z,6.60
2022-12-23T13:03:24.192Z,7.30
2022-12-23T13:06:53.143Z,6.83
2022-12-23T13:10:24.399Z,6.57
2022-12-23T13:13:53.495Z,6.43
2022-12-23T13:17:22.803Z,7.83
2022-12-23T13:20:50.900Z,7.03
2022-12-23T13:24:22.136Z,8.00
2022-12-23T13:27:50.484Z,8.00
2022-12-23T13:31:18.411Z,7.20
2022-12-23T13:34:49.925Z,7.43
2022-12-23T13:38:29.199Z,7.90
2022-12-23T13:41:57.380Z,7.10
2022-12-23T13:45:28.689Z,7.40
2022-12-23T13:48:57.636Z,7.77
2022-12-23T13:52:29.869Z,7.03
2022-12-23T13:56:10.197Z,9.27
2022-12-23T13:59:41.008Z,7.27
2022-12-23T14:03:19.219Z,7.87
2022-12-23T14:06:45.866Z,7.93
2022-12-23T14:10:13.203Z,7.93
2022-12-23T14:13:44.079Z,8.00
2022-12-23T14:17:16.496Z,7.93
2022-12-23T14:20:49.407Z,8.20
2022-12-23T14:24:35.657Z,8.27
2022-12-23T14:28:05.606Z,8.17
2022-12-23T14:31:37.050Z,8.00
2022-12-23T14:35:19.271Z,7.70
2022-12-23T14:38:41.136Z,8.00
2022-12-23T14:42:06.782Z,8.10
2022-12-23T14:45:36.052Z,7.83
2022-12-23T14:49:39.424Z,8.07
2022-12-23T14:53:02.320Z,7.77
2022-12-23T14:56:34.603Z,7.87
2022-12-23T15:00:02.606Z,8.40
2022-12-23T15:03:24.312Z,7.70
2022-12-23T15:06:50.108Z,8.07
2022-12-23T15:10:19.457Z,7.73
2022-12-23T15:13:41.222Z,8.87
2022-12-23T15:17:16.323Z,7.20
2022-12-23T15:20:38.468Z,7.10
2022-12-23T15:24:01.395Z,7.43
2022-12-23T15:27:28.355Z,8.83
2022-12-23T15:30:53.528Z,7.43
2022-12-23T15:34:23.168Z,7.90
2022-12-23T15:37:45.245Z,7.27
2022-12-23T15:41:18.550Z,8.57
2022-12-23T15:44:40.771Z,7.57
2022-12-23T15:48:04.367Z,6.97
2022-12-23T15:51:58.329Z,7.30
2022-12-23T15:55:16.560Z,7.03
2022-12-23T15:58:43.051Z,7.13
2022-12-23T16:02:40.533Z,7.40
2022-12-23T16:05:52.974Z,8.00
2022-12-23T16:09:30.894Z,7.80
2022-12-23T16:12:53.667Z,8.57
2022-12-23T16:16:32.204Z,7.90
2022-12-23T16:19:56.060Z,8.37
2022-12-23T16:23:18.913Z,7.70
2022-12-23T16:26:42.308Z,8.30
2022-12-23T16:30:12.258Z,7.77
2022-12-23T16:33:39.745Z,7.93
2022-12-23T16:37:01.440Z,8.83
2022-12-23T16:40:24.440Z,8.40
2022-12-23T16:43:52.142Z,7.83
2022-12-23T16:47:18.603Z,8.40
2022-12-23T16:50:41.644Z,8.33
2022-12-23T16:54:03.472Z,8.43
2022-12-23T16:57:25.047Z,11.27
2022-12-23T17:00:47.490Z,8.97
2022-12-23T17:04:09.954Z,8.40
2022-12-23T17:07:32.700Z,8.13
2022-12-23T17:10:54.099Z,7.70
2022-12-23T17:14:18.101Z,7.43
2022-12-23T17:17:40.382Z,7.93
2022-12-23T17:21:02.117Z,7.00
2022-12-23T17:24:26.646Z,6.63
2022-12-23T17:27:50.027Z,6.60
2022-12-23T17:31:15.393Z,9.47
2022-12-23T17:34:38.868Z,10.40
2022-12-23T17:38:02.195Z,9.90
2022-12-23T17:41:28.945Z,9.90
2022-12-23T17:44:50.540Z,10.23
2022-12-23T17:48:17.969Z,9.77
2022-12-23T17:51:43.547Z,8.00
2022-12-23T17:55:05.387Z,8.17
2022-12-23T17:58:28.155Z,9.33
2022-12-23T18:01:50.393Z,9.83
2022-12-23T18:05:22.836Z,10.50
2022-12-23T18:08:44.462Z,9.40
2022-12-23T18:12:07.171Z,9.47
2022-12-23T18:15:35.241Z,9.97
2022-12-23T18:18:57.397Z,8.73
2022-12-23T18:22:21.164Z,13.30
2022-12-23T18:25:43.032Z,16.70
2022-12-23T18:29:04.472Z,20.03
2022-12-23T18:32:29.206Z,18.70
2022-12-23T18:35:51.315Z,19.30
2022-12-23T18:39:12.771Z,12.73
2022-12-23T18:42:34.460Z,11.50
2022-12-23T18:45:56.239Z,14.60
2022-12-23T18:49:19.562Z,14.47
2022-12-23T18:52:41.235Z,13.00
2022-12-23T18:56:02.875Z,13.60
2022-12-23T18:59:30.020Z,13.83
2022-12-23T19:02:53.940Z,13.90
2022-12-23T19:06:17.110Z,12.63
2022-12-23T19:09:38.706Z,11.90
2022-12-23T19:13:00.603Z,12.83
2022-12-23T19:16:22.653Z,15.20
2022-12-23T19:19:44.396Z,17.93
2022-12-23T19:23:07.065Z,15.03
2022-12-23T19:26:28.993Z,13.70
2022-12-23T19:29:50.599Z,13.23
2022-12-23T19:33:13.266Z,11.13
2022-12-23T19:36:35.313Z,9.77
2022-12-23T19:39:58.259Z,10.03
2022-12-23T19:43:20.019Z,11.37
2022-12-23T19:46:42.162Z,14.03
2022-12-23T19:50:03.508Z,14.30
2022-12-23T19:53:25.334Z,17.90
2022-12-23T19:56:51.878Z,16.50
2022-12-23T20:00:16.009Z,17.77
2022-12-23T20:03:38.622Z,18.43
2022-12-23T20:07:00.421Z,15.07
2022-12-23T20:10:21.677Z,15.10
2022-12-23T20:13:45.693Z,15.13
2022-12-23T20:17:07.418Z,14.07
2022-12-23T20:20:29.536Z,19.70
2022-12-23T20:23:51.440Z,13.27
2022-12-23T20:27:15.782Z,10.60
2022-12-23T20:30:39.097Z,8.30
2022-12-23T20:34:01.514Z,7.13
2022-12-23T20:37:23.285Z,8.37
2022-12-23T20:40:45.146Z,8.27
2022-12-23T20:44:33.956Z,7.67
2022-12-23T20:47:49.601Z,8.20
2022-12-23T20:51:13.867Z,8.93
2022-12-23T20:54:35.225Z,10.13
2022-12-23T20:57:57.135Z,10.50
2022-12-23T21:01:18.916Z,11.77
2022-12-23T21:04:42.013Z,13.47
2022-12-23T21:08:03.836Z,12.80
2022-12-23T21:11:25.437Z,12.33
2022-12-23T21:14:47.060Z,10.90
2022-12-23T21:18:08.737Z,10.17
2022-12-23T21:21:32.081Z,10.33
2022-12-23T21:24:53.336Z,10.80
2022-12-23T21:28:15.142Z,10.53
2022-12-23T21:31:38.851Z,11.17
2022-12-23T21:35:01.655Z,11.93
2022-12-23T21:38:24.696Z,10.47
2022-12-23T21:41:46.015Z,9.70
2022-12-23T21:45:08.834Z,10.33
2022-12-23T21:48:32.518Z,9.10
2022-12-23T21:51:54.381Z,9.97
2022-12-23T21:55:18.150Z,9.20
2022-12-23T21:58:40.257Z,9.73
2022-12-23T22:02:01.733Z,9.60
2022-12-23T22:05:23.404Z,9.30
2022-12-23T22:08:45.187Z,10.03
2022-12-23T22:12:08.619Z,8.73
2022-12-23T22:15:30.298Z,9.27
2022-12-23T22:18:53.099Z,9.63
2022-12-23T22:22:14.693Z,9.40
2022-12-23T22:25:36.378Z,8.50
2022-12-23T22:29:01.181Z,9.90
2022-12-23T22:32:22.839Z,9.57
2022-12-23T22:35:44.284Z,9.23
2022-12-23T22:39:07.775Z,10.97
2022-12-23T22:42:29.573Z,10.70
2022-12-23T22:45:58.589Z,10.63
2022-12-23T22:49:20.431Z,9.47
2022-12-23T22:52:42.356Z,10.27
2022-12-23T22:56:05.251Z,9.47
2022-12-23T22:59:27.152Z,9.07
2022-12-23T23:02:50.104Z,9.17
2022-12-23T23:06:12.253Z,8.80
2022-12-23T23:09:33.551Z,10.83
2022-12-23T23:12:55.230Z,9.57
2022-12-23T23:16:17.077Z,10.17
2022-12-23T23:19:39.987Z,9.60
2022-12-23T23:23:01.668Z,9.33
2022-12-23T23:26:26.804Z,8.90
2022-12-23T23:29:48.328Z,9.33
2022-12-23T23:33:11.499Z,9.40
2022-12-23T23:36:34.396Z,9.93
2022-12-23T23:39:55.595Z,9.87
2022-12-23T23:43:17.294Z,10.10
2022-12-23T23:46:39.309Z,10.17
2022-12-23T23:50:00.834Z,9.47
2022-12-23T23:53:23.485Z,9.63
2022-12-23T23:56:45.163Z,9.10
